createdAt,value
2019-05-22T00:00:24.448Z,92.00
2019-05-22T00:02:53.163Z,91.80
2019-05-22T00:05:23.456Z,92.00
2019-05-22T00:07:51.947Z,91.90
2019-05-22T00:10:27.198Z,92.00
2019-05-22T00:12:57.594Z,92.10
2019-05-22T00:15:26.055Z,91.90
2019-05-22T00:17:54.595Z,92.30
2019-05-22T00:20:25.698Z,92.00
2019-05-22T00:22:54.968Z,92.20
2019-05-22T00:25:29.218Z,92.20
2019-05-22T00:27:59.630Z,92.10
2019-05-22T00:30:32.043Z,92.10
2019-05-22T00:33:00.977Z,92.10
2019-05-22T00:35:31.496Z,92.20
2019-05-22T00:38:01.658Z,92.20
2019-05-22T00:40:31.952Z,92.20
2019-05-22T00:43:06.708Z,92.40
2019-05-22T00:45:31.206Z,92.40
2019-05-22T00:48:00.297Z,92.20
2019-05-22T00:50:33.534Z,92.30
2019-05-22T00:53:22.365Z,92.30
2019-05-22T00:55:52.787Z,92.10
2019-05-22T00:58:26.684Z,92.30
2019-05-22T01:00:58.001Z,92.40
2019-05-22T01:03:26.700Z,92.40
2019-05-22T01:05:57.887Z,92.40
2019-05-22T01:08:28.095Z,92.50
2019-05-22T01:10:57.767Z,92.60
2019-05-22T01:13:30.878Z,92.50
2019-05-22T01:15:59.814Z,92.40
2019-05-22T01:18:28.643Z,92.40
2019-05-22T01:20:59.496Z,92.40
2019-05-22T01:23:30.309Z,92.40
2019-05-22T01:26:01.243Z,92.40
2019-05-22T01:28:31.980Z,92.70
2019-05-22T01:31:02.705Z,92.60
2019-05-22T01:33:33.004Z,92.50
2019-05-22T01:36:03.170Z,92.70
2019-05-22T01:38:33.505Z,92.50
2019-05-22T01:41:12.557Z,92.70
2019-05-22T01:43:44.713Z,92.60
2019-05-22T01:46:14.984Z,92.60
2019-05-22T01:48:45.267Z,92.60
2019-05-22T01:51:15.916Z,92.60
2019-05-22T01:53:44.447Z,92.60
2019-05-22T01:56:13.510Z,92.70
2019-05-22T01:58:42.894Z,92.80
2019-05-22T02:01:14.408Z,92.70
2019-05-22T02:03:44.796Z,93.10
2019-05-22T02:06:14.923Z,92.80
2019-05-22T02:08:47.825Z,92.70
2019-05-22T02:11:19.560Z,92.70
2019-05-22T02:13:59.886Z,92.60
2019-05-22T02:16:32.459Z,92.50
2019-05-22T02:19:02.823Z,92.90
2019-05-22T02:21:32.692Z,92.80
2019-05-22T02:24:01.780Z,92.50
2019-05-22T02:26:30.973Z,92.60
2019-05-22T02:29:01.341Z,92.70
2019-05-22T02:31:30.898Z,92.70
2019-05-22T02:34:02.842Z,92.50
2019-05-22T02:36:34.056Z,92.60
2019-05-22T02:39:05.142Z,92.70
2019-05-22T02:41:40.694Z,92.70
2019-05-22T02:44:09.172Z,92.70
2019-05-22T02:46:38.040Z,92.50
2019-05-22T02:49:07.261Z,92.60
2019-05-22T02:51:36.452Z,92.60
2019-05-22T02:54:07.056Z,92.60
2019-05-22T02:56:36.533Z,92.70
2019-05-22T02:59:08.945Z,92.90
2019-05-22T03:01:37.857Z,92.90
2019-05-22T03:04:08.396Z,92.80
2019-05-22T03:06:38.669Z,92.80
2019-05-22T03:09:11.958Z,92.90
2019-05-22T03:11:43.756Z,93.10
2019-05-22T03:14:13.678Z,93.00
2019-05-22T03:16:54.400Z,93.00
2019-05-22T03:19:39.169Z,93.10
2019-05-22T03:22:31.611Z,92.90
2019-05-22T03:25:02.215Z,93.00
2019-05-22T03:27:39.884Z,93.10
2019-05-22T03:30:14.374Z,93.00
2019-05-22T03:32:44.394Z,93.10
2019-05-22T03:35:14.081Z,93.10
2019-05-22T03:37:43.059Z,93.00
2019-05-22T03:40:13.167Z,93.10
2019-05-22T03:42:42.731Z,93.10
2019-05-22T03:45:11.942Z,93.10
2019-05-22T03:47:41.907Z,92.90
2019-05-22T03:50:11.855Z,93.60
2019-05-22T03:52:40.646Z,93.20
2019-05-22T03:55:11.825Z,93.10
2019-05-22T03:57:41.326Z,93.00
2019-05-22T04:00:19.582Z,93.10
2019-05-22T04:02:51.254Z,93.10
2019-05-22T04:05:21.005Z,93.10
2019-05-22T04:07:51.007Z,93.40
2019-05-22T04:10:19.482Z,93.00
2019-05-22T04:12:50.135Z,93.00
2019-05-22T04:15:20.212Z,93.10
2019-05-22T04:17:48.744Z,92.90
2019-05-22T04:20:19.814Z,92.90
2019-05-22T04:22:50.898Z,93.00
2019-05-22T04:25:19.525Z,92.90
2019-05-22T04:27:48.437Z,92.90
2019-05-22T04:30:18.488Z,93.30
2019-05-22T04:32:48.632Z,92.90
2019-05-22T04:35:19.405Z,92.50
2019-05-22T04:37:49.618Z,92.40
2019-05-22T04:40:27.206Z,92.40
2019-05-22T04:42:58.712Z,92.40
2019-05-22T04:45:47.414Z,92.50
2019-05-22T04:48:17.097Z,92.40
2019-05-22T04:50:46.492Z,92.50
2019-05-22T04:53:16.079Z,92.50
2019-05-22T04:55:45.505Z,92.40
2019-05-22T04:58:19.416Z,92.50
2019-05-22T05:00:47.871Z,92.60
2019-05-22T05:03:19.196Z,92.40
2019-05-22T05:05:54.085Z,92.40
2019-05-22T05:08:24.062Z,92.40
2019-05-22T05:10:53.590Z,92.50
2019-05-22T05:13:22.048Z,92.50
2019-05-22T05:15:50.583Z,92.40
2019-05-22T05:18:19.160Z,92.50
2019-05-22T05:20:47.923Z,92.30
2019-05-22T05:23:16.722Z,92.20
2019-05-22T05:25:45.364Z,92.00
2019-05-22T05:28:15.335Z,92.10
2019-05-22T05:30:44.105Z,92.00
2019-05-22T05:33:12.987Z,91.60
2019-05-22T05:35:42.300Z,91.80
2019-05-22T05:38:11.764Z,91.70
2019-05-22T05:40:42.606Z,91.50
2019-05-22T05:43:13.129Z,91.50
2019-05-22T05:45:43.321Z,91.30
2019-05-22T05:48:14.051Z,91.30
2019-05-22T05:51:02.346Z,91.20
2019-05-22T05:53:33.957Z,91.00
2019-05-22T05:56:14.321Z,91.00
2019-05-22T05:58:43.532Z,90.70
2019-05-22T06:01:19.313Z,90.70
2019-05-22T06:03:47.942Z,91.30
2019-05-22T06:06:25.991Z,90.30
2019-05-22T06:08:56.623Z,90.60
2019-05-22T06:11:34.406Z,90.70
2019-05-22T06:14:05.526Z,90.60
2019-05-22T06:16:53.751Z,90.30
2019-05-22T06:19:23.927Z,89.90
2019-05-22T06:21:54.016Z,89.70
2019-05-22T06:24:36.202Z,90.00
2019-05-22T06:27:09.430Z,88.90
2019-05-22T06:29:52.984Z,88.60
2019-05-22T06:32:30.591Z,87.70
2019-05-22T06:34:59.881Z,87.90
2019-05-22T06:37:37.199Z,87.80
2019-05-22T06:40:09.134Z,87.20
2019-05-22T06:42:40.597Z,85.70
2019-05-22T06:45:09.585Z,85.70
2019-05-22T06:47:38.151Z,86.40
2019-05-22T06:50:07.721Z,86.60
2019-05-22T06:52:36.245Z,85.10
2019-05-22T06:55:06.288Z,84.60
2019-05-22T06:57:34.926Z,84.40
2019-05-22T07:00:13.862Z,84.00
2019-05-22T07:02:37.510Z,82.60
2019-05-22T07:05:07.067Z,82.80
2019-05-22T07:07:36.049Z,83.30
2019-05-22T07:10:06.639Z,84.60
2019-05-22T07:12:35.946Z,84.10
2019-05-22T07:15:08.540Z,84.40
2019-05-22T07:17:37.861Z,86.00
2019-05-22T07:20:08.102Z,85.20
2019-05-22T07:22:37.068Z,83.20
2019-05-22T07:25:09.503Z,83.10
2019-05-22T07:27:38.826Z,82.60
2019-05-22T07:30:09.221Z,81.70
2019-05-22T07:32:38.099Z,83.20
2019-05-22T07:35:08.384Z,82.40
2019-05-22T07:37:45.232Z,82.60
2019-05-22T07:40:15.297Z,82.60
2019-05-22T07:42:44.598Z,81.60
2019-05-22T07:45:14.907Z,79.60
2019-05-22T07:47:43.452Z,80.60
2019-05-22T07:50:13.187Z,79.10
2019-05-22T07:52:42.726Z,79.40
2019-05-22T07:55:11.933Z,79.10
2019-05-22T07:57:43.068Z,78.60
2019-05-22T08:00:12.585Z,79.20
2019-05-22T08:02:43.555Z,78.60
2019-05-22T08:05:12.740Z,77.80
2019-05-22T08:07:42.039Z,78.20
2019-05-22T08:10:14.035Z,77.50
2019-05-22T08:12:44.053Z,76.80
2019-05-22T08:15:14.376Z,77.60
2019-05-22T08:17:43.176Z,75.70
2019-05-22T08:20:12.581Z,77.50
2019-05-22T08:22:41.536Z,75.20
2019-05-22T08:25:11.604Z,76.50
2019-05-22T08:27:41.364Z,75.10
2019-05-22T08:30:10.414Z,74.50
2019-05-22T08:32:39.546Z,76.10
2019-05-22T08:35:10.697Z,73.20
2019-05-22T08:37:40.928Z,73.20
2019-05-22T08:40:12.602Z,74.10
2019-05-22T08:42:41.974Z,74.50
2019-05-22T08:45:12.981Z,73.90
2019-05-22T08:47:41.878Z,73.60
2019-05-22T08:50:15.940Z,73.60
2019-05-22T08:52:44.949Z,73.20
2019-05-22T08:55:14.721Z,72.70
2019-05-22T08:57:44.770Z,73.30
2019-05-22T09:00:15.963Z,71.60
2019-05-22T09:02:44.773Z,73.40
2019-05-22T09:05:14.036Z,73.20
2019-05-22T09:07:43.788Z,72.80
2019-05-22T09:10:14.527Z,73.50
2019-05-22T09:12:43.124Z,70.00
2019-05-22T09:15:12.267Z,68.60
2019-05-22T09:17:40.865Z,69.20
2019-05-22T09:20:10.295Z,67.40
2019-05-22T09:22:41.133Z,68.90
2019-05-22T09:25:12.705Z,66.50
2019-05-22T09:27:42.730Z,67.90
2019-05-22T09:30:11.738Z,66.70
2019-05-22T09:32:40.273Z,67.30
2019-05-22T09:35:09.427Z,66.60
2019-05-22T09:37:38.308Z,66.00
2019-05-22T09:40:07.221Z,65.50
2019-05-22T09:42:37.124Z,67.10
2019-05-22T09:45:09.735Z,66.90
2019-05-22T09:47:39.985Z,65.60
2019-05-22T09:50:12.286Z,64.90
2019-05-22T09:52:56.212Z,64.80
2019-05-22T09:55:13.674Z,64.00
2019-05-22T09:57:42.523Z,66.30
2019-05-22T10:00:13.477Z,64.30
2019-05-22T10:02:42.948Z,64.20
2019-05-22T10:05:14.002Z,64.20
2019-05-22T10:07:57.557Z,62.30
2019-05-22T10:10:14.843Z,62.30
2019-05-22T10:12:45.402Z,61.30
2019-05-22T10:15:14.422Z,58.60
2019-05-22T10:17:49.253Z,61.90
2019-05-22T10:20:18.729Z,59.40
2019-05-22T10:22:47.270Z,61.00
2019-05-22T10:25:17.329Z,59.20
2019-05-22T10:27:47.721Z,58.40
2019-05-22T10:30:22.503Z,61.10
2019-05-22T10:32:51.205Z,56.80
2019-05-22T10:35:23.349Z,58.30
2019-05-22T10:37:53.674Z,58.40
2019-05-22T10:40:23.769Z,58.40
2019-05-22T10:42:52.662Z,57.40
2019-05-22T10:45:21.524Z,58.80
2019-05-22T10:47:50.153Z,59.00
2019-05-22T10:50:19.621Z,57.70
2019-05-22T10:52:53.917Z,58.20
2019-05-22T10:55:21.281Z,56.30
2019-05-22T10:57:50.028Z,57.10
2019-05-22T11:00:20.938Z,56.30
2019-05-22T11:02:49.712Z,58.20
2019-05-22T11:05:20.814Z,58.60
2019-05-22T11:07:50.514Z,58.80
2019-05-22T11:10:21.968Z,58.90
2019-05-22T11:12:51.229Z,57.10
2019-05-22T11:15:21.153Z,57.20
2019-05-22T11:17:49.898Z,56.60
2019-05-22T11:20:19.073Z,56.50
2019-05-22T11:22:48.476Z,55.20
2019-05-22T11:25:18.140Z,55.60
2019-05-22T11:27:47.004Z,55.20
2019-05-22T11:30:17.209Z,57.10
2019-05-22T11:32:45.957Z,58.50
2019-05-22T11:35:15.681Z,58.00
2019-05-22T11:37:44.622Z,54.90
2019-05-22T11:40:15.424Z,55.50
2019-05-22T11:42:43.890Z,53.70
2019-05-22T11:45:15.189Z,50.70
2019-05-22T11:47:44.340Z,50.60
2019-05-22T11:50:13.328Z,51.10
2019-05-22T11:52:42.549Z,50.30
2019-05-22T11:55:12.967Z,51.00
2019-05-22T11:57:43.651Z,51.90
2019-05-22T12:00:13.387Z,49.10
2019-05-22T12:02:41.934Z,50.40
2019-05-22T12:05:12.609Z,47.00
2019-05-22T12:07:41.904Z,48.10
2019-05-22T12:10:12.366Z,48.60
2019-05-22T12:12:41.538Z,47.60
2019-05-22T12:15:12.461Z,49.00
2019-05-22T12:17:41.523Z,48.30
2019-05-22T12:20:11.789Z,49.70
2019-05-22T12:22:41.340Z,51.30
2019-05-22T12:25:12.211Z,49.70
2019-05-22T12:27:41.677Z,47.30
2019-05-22T12:30:12.679Z,48.10
2019-05-22T12:32:41.906Z,47.70
2019-05-22T12:35:13.725Z,49.60
2019-05-22T12:37:43.017Z,47.90
2019-05-22T12:40:14.244Z,47.60
2019-05-22T12:42:44.451Z,47.00
2019-05-22T12:45:14.398Z,48.40
2019-05-22T12:47:43.577Z,51.50
2019-05-22T12:50:15.388Z,51.90
2019-05-22T12:52:47.045Z,51.10
2019-05-22T12:55:17.017Z,52.00
2019-05-22T12:57:45.985Z,49.80
2019-05-22T13:00:15.775Z,48.90
2019-05-22T13:02:44.601Z,46.90
2019-05-22T13:05:14.434Z,47.40
2019-05-22T13:07:43.923Z,44.10
2019-05-22T13:10:13.013Z,43.00
2019-05-22T13:12:41.662Z,42.70
2019-05-22T13:15:11.068Z,44.40
2019-05-22T13:17:41.397Z,42.90
2019-05-22T13:20:12.559Z,42.50
2019-05-22T13:22:47.768Z,42.70
2019-05-22T13:25:19.691Z,43.60
2019-05-22T13:27:49.065Z,45.70
2019-05-22T13:30:19.754Z,46.20
2019-05-22T13:32:49.409Z,44.20
2019-05-22T13:35:19.129Z,44.50
2019-05-22T13:37:48.741Z,45.00
2019-05-22T13:40:27.787Z,45.90
2019-05-22T13:42:49.228Z,43.60
2019-05-22T13:45:28.463Z,44.80
2019-05-22T13:47:48.616Z,43.00
2019-05-22T13:50:18.777Z,42.70
2019-05-22T13:52:47.595Z,42.60
2019-05-22T13:55:17.899Z,42.30
2019-05-22T13:57:48.756Z,45.30
2019-05-22T14:00:20.128Z,45.30
2019-05-22T14:02:48.966Z,46.10
2019-05-22T14:05:18.256Z,48.30
2019-05-22T14:07:46.980Z,48.30
2019-05-22T14:10:16.979Z,47.60
2019-05-22T14:12:45.584Z,47.00
2019-05-22T14:15:15.843Z,48.10
2019-05-22T14:17:44.302Z,48.20
2019-05-22T14:20:14.454Z,46.80
2019-05-22T14:22:43.079Z,47.50
2019-05-22T14:25:13.832Z,46.40
2019-05-22T14:27:42.289Z,46.60
2019-05-22T14:30:13.113Z,46.70
2019-05-22T14:32:41.957Z,44.00
2019-05-22T14:35:11.266Z,44.50
2019-05-22T14:37:41.186Z,43.90
2019-05-22T14:40:11.854Z,43.20
2019-05-22T14:42:40.640Z,40.70
2019-05-22T14:45:09.565Z,42.10
2019-05-22T14:47:38.464Z,41.60
2019-05-22T14:50:08.728Z,40.20
2019-05-22T14:52:37.365Z,38.80
2019-05-22T14:55:07.171Z,39.60
2019-05-22T14:57:36.506Z,38.60
2019-05-22T15:00:10.268Z,37.40
2019-05-22T15:02:39.163Z,37.60
2019-05-22T15:05:08.659Z,39.30
2019-05-22T15:07:37.495Z,36.80
2019-05-22T15:10:08.354Z,37.40
2019-05-22T15:12:37.219Z,36.10
2019-05-22T15:15:06.711Z,36.40
2019-05-22T15:17:35.247Z,36.00
2019-05-22T15:20:05.831Z,38.10
2019-05-22T15:22:35.724Z,36.50
2019-05-22T15:25:06.868Z,36.90
2019-05-22T15:27:35.858Z,37.90
2019-05-22T15:30:06.783Z,38.50
2019-05-22T15:32:35.424Z,38.60
2019-05-22T15:35:04.897Z,38.30
2019-05-22T15:37:34.503Z,38.30
2019-05-22T15:40:04.386Z,40.30
2019-05-22T15:42:41.751Z,40.80
2019-05-22T15:45:16.003Z,41.60
2019-05-22T15:47:54.826Z,40.40
2019-05-22T15:50:19.496Z,42.20
2019-05-22T15:52:51.441Z,40.70
2019-05-22T15:55:21.162Z,40.90
2019-05-22T15:57:50.445Z,43.20
2019-05-22T16:00:22.233Z,42.90
2019-05-22T16:02:51.124Z,42.00
2019-05-22T16:05:22.224Z,41.30
2019-05-22T16:07:52.884Z,41.90
2019-05-22T16:10:23.206Z,42.40
2019-05-22T16:12:52.981Z,42.80
2019-05-22T16:15:25.297Z,42.70
2019-05-22T16:18:10.331Z,44.50
2019-05-22T16:20:27.269Z,44.10
2019-05-22T16:22:56.965Z,42.70
2019-05-22T16:25:26.421Z,43.50
2019-05-22T16:27:55.996Z,41.30
2019-05-22T16:30:26.208Z,40.70
2019-05-22T16:32:56.209Z,40.70
2019-05-22T16:35:26.056Z,40.60
2019-05-22T16:37:56.650Z,40.10
2019-05-22T16:40:25.616Z,39.30
2019-05-22T16:42:55.380Z,39.60
2019-05-22T16:45:24.824Z,40.30
2019-05-22T16:47:55.418Z,40.10
2019-05-22T16:50:25.141Z,40.20
2019-05-22T16:52:54.456Z,39.90
2019-05-22T16:55:24.559Z,40.70
2019-05-22T16:57:54.336Z,41.80
2019-05-22T17:00:24.295Z,41.60
2019-05-22T17:02:52.761Z,41.80
2019-05-22T17:05:23.518Z,42.70
2019-05-22T17:07:52.724Z,42.40
2019-05-22T17:10:23.097Z,42.90
2019-05-22T17:12:52.995Z,43.10
2019-05-22T17:15:21.750Z,42.80
2019-05-22T17:17:50.454Z,43.00
2019-05-22T17:20:25.411Z,43.10
2019-05-22T17:22:54.507Z,43.20
2019-05-22T17:25:23.401Z,41.90
2019-05-22T17:27:51.909Z,41.50
2019-05-22T17:30:23.955Z,41.80
2019-05-22T17:32:53.210Z,41.30
2019-05-22T17:35:24.446Z,40.70
2019-05-22T17:37:53.152Z,41.00
2019-05-22T17:40:22.421Z,40.00
2019-05-22T17:42:53.342Z,40.90
2019-05-22T17:45:25.788Z,41.30
2019-05-22T17:47:55.421Z,41.10
2019-05-22T17:50:27.614Z,42.00
2019-05-22T17:52:57.084Z,41.80
2019-05-22T17:55:27.391Z,42.30
2019-05-22T17:57:56.393Z,42.60
2019-05-22T18:00:29.326Z,40.40
2019-05-22T18:02:59.193Z,41.80
2019-05-22T18:05:28.706Z,42.90
2019-05-22T18:07:57.436Z,42.30
2019-05-22T18:10:26.656Z,42.20
2019-05-22T18:12:55.170Z,43.60
2019-05-22T18:15:24.052Z,43.30
2019-05-22T18:17:52.885Z,43.20
2019-05-22T18:20:22.589Z,43.40
2019-05-22T18:22:51.580Z,44.50
2019-05-22T18:25:20.294Z,44.60
2019-05-22T18:27:50.952Z,46.00
2019-05-22T18:30:20.383Z,46.30
2019-05-22T18:32:49.180Z,45.80
2019-05-22T18:35:19.114Z,46.10
2019-05-22T18:37:48.114Z,46.70
2019-05-22T18:40:18.437Z,47.30
2019-05-22T18:42:47.540Z,47.50
2019-05-22T18:45:16.912Z,47.80
2019-05-22T18:47:45.903Z,47.50
2019-05-22T18:50:16.140Z,48.40
2019-05-22T18:52:47.815Z,47.40
2019-05-22T18:55:17.386Z,49.00
2019-05-22T18:57:46.498Z,50.70
2019-05-22T19:00:19.031Z,50.60
2019-05-22T19:02:47.555Z,48.70
2019-05-22T19:05:19.251Z,50.20
2019-05-22T19:07:48.406Z,51.40
2019-05-22T19:10:18.270Z,48.90
2019-05-22T19:12:47.332Z,50.20
2019-05-22T19:15:16.825Z,51.30
2019-05-22T19:17:45.351Z,51.90
2019-05-22T19:20:14.308Z,51.40
2019-05-22T19:22:58.535Z,50.30
2019-05-22T19:25:13.587Z,50.70
2019-05-22T19:27:42.446Z,51.10
2019-05-22T19:30:13.030Z,51.80
2019-05-22T19:32:41.624Z,53.50
2019-05-22T19:35:10.842Z,53.00
2019-05-22T19:37:39.287Z,52.60
2019-05-22T19:40:10.021Z,53.30
2019-05-22T19:42:39.352Z,54.10
2019-05-22T19:45:10.664Z,54.10
2019-05-22T19:47:42.914Z,54.50
2019-05-22T19:50:22.789Z,55.30
2019-05-22T19:52:43.439Z,55.90
2019-05-22T19:55:14.110Z,56.20
2019-05-22T19:57:43.333Z,57.40
2019-05-22T20:00:12.497Z,58.50
2019-05-22T20:02:42.269Z,57.50
2019-05-22T20:05:11.286Z,58.00
2019-05-22T20:07:41.022Z,58.20
2019-05-22T20:10:11.288Z,58.20
2019-05-22T20:12:40.399Z,58.40
2019-05-22T20:15:11.216Z,58.80
2019-05-22T20:17:40.004Z,59.20
2019-05-22T20:20:10.277Z,59.30
2019-05-22T20:22:42.240Z,61.70
2019-05-22T20:25:12.598Z,63.30
2019-05-22T20:27:41.690Z,63.10
2019-05-22T20:30:12.175Z,62.00
2019-05-22T20:32:41.089Z,62.50
2019-05-22T20:35:10.346Z,63.70
2019-05-22T20:37:40.134Z,64.30
2019-05-22T20:40:09.764Z,64.40
2019-05-22T20:42:39.488Z,64.60
2019-05-22T20:45:09.249Z,67.00
2019-05-22T20:47:39.974Z,64.70
2019-05-22T20:50:10.343Z,64.80
2019-05-22T20:52:40.005Z,65.70
2019-05-22T20:55:09.644Z,66.80
2019-05-22T20:57:38.403Z,68.70
2019-05-22T21:00:09.054Z,67.20
2019-05-22T21:02:40.208Z,68.00
2019-05-22T21:05:10.985Z,68.20
2019-05-22T21:07:48.892Z,69.30
2019-05-22T21:10:17.836Z,68.20
2019-05-22T21:12:46.648Z,68.40
2019-05-22T21:15:16.015Z,69.00
2019-05-22T21:17:45.128Z,68.90
2019-05-22T21:20:15.636Z,69.20
2019-05-22T21:22:45.931Z,69.80
2019-05-22T21:25:14.872Z,69.60
2019-05-22T21:27:43.479Z,70.60
2019-05-22T21:30:14.851Z,70.40
2019-05-22T21:32:44.154Z,71.00
2019-05-22T21:35:13.977Z,70.40
2019-05-22T21:37:42.572Z,70.30
2019-05-22T21:40:12.146Z,72.00
2019-05-22T21:42:41.855Z,71.90
2019-05-22T21:45:11.058Z,71.10
2019-05-22T21:47:41.568Z,71.90
2019-05-22T21:50:12.062Z,72.40
2019-05-22T21:52:41.324Z,72.60
2019-05-22T21:55:13.128Z,73.00
2019-05-22T21:57:42.437Z,72.40
2019-05-22T22:00:18.530Z,72.20
2019-05-22T22:02:48.992Z,72.70
2019-05-22T22:05:19.282Z,73.00
2019-05-22T22:07:48.341Z,73.50
2019-05-22T22:10:17.962Z,73.50
2019-05-22T22:12:47.926Z,73.80
2019-05-22T22:15:17.068Z,74.70
2019-05-22T22:17:47.064Z,75.30
2019-05-22T22:20:17.429Z,75.90
2019-05-22T22:22:45.927Z,75.40
2019-05-22T22:25:15.197Z,75.20
2019-05-22T22:27:44.264Z,75.90
2019-05-22T22:30:33.082Z,75.80
2019-05-22T22:33:05.373Z,76.90
2019-05-22T22:35:33.971Z,78.20
2019-05-22T22:38:03.338Z,78.10
2019-05-22T22:40:31.982Z,78.00
2019-05-22T22:43:03.579Z,77.80
2019-05-22T22:45:41.665Z,78.50
2019-05-22T22:48:12.500Z,78.80
2019-05-22T22:50:41.026Z,79.10
2019-05-22T22:53:10.287Z,78.70
2019-05-22T22:55:40.096Z,78.80
2019-05-22T22:58:17.096Z,79.70
2019-05-22T23:00:45.799Z,79.10
2019-05-22T23:03:20.273Z,79.50
2019-05-22T23:05:49.336Z,80.20
2019-05-22T23:08:23.922Z,80.10
2019-05-22T23:10:53.404Z,80.70
2019-05-22T23:13:23.574Z,81.20
2019-05-22T23:15:54.037Z,81.10
2019-05-22T23:18:45.321Z,81.00
2019-05-22T23:21:17.014Z,80.80
2019-05-22T23:23:46.121Z,81.00
2019-05-22T23:26:16.273Z,81.70
2019-05-22T23:28:45.045Z,81.60
2019-05-22T23:31:14.229Z,82.00
2019-05-22T23:33:42.972Z,82.10
2019-05-22T23:36:13.589Z,82.20
2019-05-22T23:38:42.201Z,81.90
2019-05-22T23:41:12.576Z,81.90
2019-05-22T23:43:43.012Z,82.30
2019-05-22T23:46:13.407Z,83.10
2019-05-22T23:48:43.905Z,83.10
2019-05-22T23:51:12.925Z,83.10
2019-05-22T23:53:42.753Z,82.90
2019-05-22T23:56:11.826Z,83.10
2019-05-22T23:58:52.224Z,83.60
